sensor_id;sensor_type;location;lat;lon;timestamp;pressure;altitude;pressure_sealevel;temperature;humidity
37238;BME280;23129;49.662;8.448;2023-01-31T00:00:01;101692.22;;;4.17;100.00
37238;BME280;23129;49.662;8.448;2023-01-31T00:02:31;101683.59;;;4.18;100.00
37238;BME280;23129;49.662;8.448;2023-01-31T00:05:00;101686.19;;;4.18;100.00
37238;BME280;23129;49.662;8.448;2023-01-31T00:07:29;101674.94;;;4.19;100.00
37238;BME280;23129;49.662;8.448;2023-01-31T00:09:57;101688.84;;;4.21;100.00
37238;BME280;23129;49.662;8.448;2023-01-31T00:12:25;101682.78;;;4.22;100.00
37238;BME280;23129;49.662;8.448;2023-01-31T00:14:54;101696.69;;;4.24;100.00
37238;BME280;23129;49.662;8.448;2023-01-31T00:17:22;101695.00;;;4.26;100.00
37238;BME280;23129;49.662;8.448;2023-01-31T00:19:51;101682.06;;;4.29;100.00
37238;BME280;23129;49.662;8.448;2023-01-31T00:22:20;101688.19;;;4.32;100.00
37238;BME280;23129;49.662;8.448;2023-01-31T00:24:49;101690.88;;;4.37;100.00
37238;BME280;23129;49.662;8.448;2023-01-31T00:27:17;101685.75;;;4.40;100.00
37238;BME280;23129;49.662;8.448;2023-01-31T00:29:45;101677.09;;;4.41;100.00
37238;BME280;23129;49.662;8.448;2023-01-31T00:32:15;101665.84;;;4.42;100.00
37238;BME280;23129;49.662;8.448;2023-01-31T00:34:44;101678.00;;;4.43;100.00
37238;BME280;23129;49.662;8.448;2023-01-31T00:37:12;101678.00;;;4.45;100.00
37238;BME280;23129;49.662;8.448;2023-01-31T00:39:41;101672.84;;;4.46;100.00
37238;BME280;23129;49.662;8.448;2023-01-31T00:42:10;101687.56;;;4.46;100.00
37238;BME280;23129;49.662;8.448;2023-01-31T00:44:40;101692.72;;;4.44;100.00
37238;BME280;23129;49.662;8.448;2023-01-31T00:47:09;101686.63;;;4.42;100.00
37238;BME280;23129;49.662;8.448;2023-01-31T00:49:37;101680.53;;;4.40;100.00
37238;BME280;23129;49.662;8.448;2023-01-31T00:52:06;101688.25;;;4.35;100.00
37238;BME280;23129;49.662;8.448;2023-01-31T00:54:34;101682.13;;;4.32;100.00
37238;BME280;23129;49.662;8.448;2023-01-31T00:57:04;101682.06;;;4.29;100.00
37238;BME280;23129;49.662;8.448;2023-01-31T00:59:33;101684.56;;;4.23;100.00
37238;BME280;23129;49.662;8.448;2023-01-31T01:02:02;101691.41;;;4.19;100.00
37238;BME280;23129;49.662;8.448;2023-01-31T01:04:30;101684.34;;;4.12;100.00
37238;BME280;23129;49.662;8.448;2023-01-31T01:06:59;101691.19;;;4.07;100.00
37238;BME280;23129;49.662;8.448;2023-01-31T01:09:27;101684.16;;;4.01;100.00
37238;BME280;23129;49.662;8.448;2023-01-31T01:11:55;101684.88;;;3.94;100.00
37238;BME280;23129;49.662;8.448;2023-01-31T01:14:25;101689.13;;;3.91;100.00
37238;BME280;23129;49.662;8.448;2023-01-31T01:16:53;101695.06;;;3.85;100.00
37238;BME280;23129;49.662;8.448;2023-01-31T01:19:25;101689.75;;;3.79;100.00
37238;BME280;23129;49.662;8.448;2023-01-31T01:21:54;101689.66;;;3.73;100.00
37238;BME280;23129;49.662;8.448;2023-01-31T01:24:22;101699.88;;;3.65;100.00
37238;BME280;23129;49.662;8.448;2023-01-31T01:26:51;101699.72;;;3.57;100.00
37238;BME280;23129;49.662;8.448;2023-01-31T01:29:19;101696.13;;;3.51;100.00
37238;BME280;23129;49.662;8.448;2023-01-31T01:31:50;101701.19;;;3.46;100.00
37238;BME280;23129;49.662;8.448;2023-01-31T01:34:18;101702.78;;;3.41;100.00
37238;BME280;23129;49.662;8.448;2023-01-31T01:36:47;101699.25;;;3.36;100.00
37238;BME280;23129;49.662;8.448;2023-01-31T01:39:15;101719.00;;;3.31;100.00
37238;BME280;23129;49.662;8.448;2023-01-31T01:41:45;101704.25;;;3.27;100.00
37238;BME280;23129;49.662;8.448;2023-01-31T01:44:49;101712.75;;;3.23;100.00
37238;BME280;23129;49.662;8.448;2023-01-31T01:47:36;101731.69;;;3.18;100.00
37238;BME280;23129;49.662;8.448;2023-01-31T01:50:10;101719.53;;;3.14;100.00
37238;BME280;23129;49.662;8.448;2023-01-31T01:52:46;101714.25;;;3.11;100.00
37238;BME280;23129;49.662;8.448;2023-01-31T01:55:21;101716.78;;;3.08;100.00
37238;BME280;23129;49.662;8.448;2023-01-31T01:57:55;101719.31;;;3.05;100.00
37238;BME280;23129;49.662;8.448;2023-01-31T02:00:28;101722.66;;;3.01;100.00
37238;BME280;23129;49.662;8.448;2023-01-31T02:03:01;101726.00;;;2.97;100.00
37238;BME280;23129;49.662;8.448;2023-01-31T02:05:33;101718.13;;;2.92;100.00
37238;BME280;23129;49.662;8.448;2023-01-31T02:08:03;101722.34;;;2.89;100.00
37238;BME280;23129;49.662;8.448;2023-01-31T02:10:36;101729.19;;;2.87;100.00
37238;BME280;23129;49.662;8.448;2023-01-31T02:13:06;101717.91;;;2.83;100.00
37238;BME280;23129;49.662;8.448;2023-01-31T02:15:34;101723.88;;;2.81;100.00
37238;BME280;23129;49.662;8.448;2023-01-31T02:18:05;101727.31;;;2.80;100.00
37238;BME280;23129;49.662;8.448;2023-01-31T02:21:19;101714.31;;;2.78;100.00
37238;BME280;23129;49.662;8.448;2023-01-31T02:24:27;101716.03;;;2.78;100.00
37238;BME280;23129;49.662;8.448;2023-01-31T02:27:47;101724.56;;;2.73;100.00
37238;BME280;23129;49.662;8.448;2023-01-31T02:33:43;101720.09;;;2.66;100.00
37238;BME280;23129;49.662;8.448;2023-01-31T02:36:27;101726.84;;;2.61;100.00
37238;BME280;23129;49.662;8.448;2023-01-31T02:39:06;101719.81;;;2.57;100.00
37238;BME280;23129;49.662;8.448;2023-01-31T02:41:41;101721.44;;;2.52;100.00
37238;BME280;23129;49.662;8.448;2023-01-31T02:44:19;101717.84;;;2.47;100.00
37238;BME280;23129;49.662;8.448;2023-01-31T02:47:18;101716.84;;;2.42;100.00
37238;BME280;23129;49.662;8.448;2023-01-31T02:49:57;101705.53;;;2.37;100.00
37238;BME280;23129;49.662;8.448;2023-01-31T02:52:33;101710.56;;;2.32;100.00
37238;BME280;23129;49.662;8.448;2023-01-31T02:55:13;101712.19;;;2.28;100.00
37238;BME280;23129;49.662;8.448;2023-01-31T02:58:02;101705.19;;;2.24;100.00
37238;BME280;23129;49.662;8.448;2023-01-31T03:00:34;101713.78;;;2.23;100.00
37238;BME280;23129;49.662;8.448;2023-01-31T03:03:06;101718.00;;;2.20;100.00
37238;BME280;23129;49.662;8.448;2023-01-31T03:05:36;101711.88;;;2.16;100.00
37238;BME280;23129;49.662;8.448;2023-01-31T03:08:06;101711.78;;;2.13;100.00
37238;BME280;23129;49.662;8.448;2023-01-31T03:10:50;101720.28;;;2.09;100.00
37238;BME280;23129;49.662;8.448;2023-01-31T03:13:35;101721.09;;;2.07;100.00
37238;BME280;23129;49.662;8.448;2023-01-31T03:16:19;101727.06;;;2.04;100.00
37238;BME280;23129;49.662;8.448;2023-01-31T03:19:15;101728.72;;;2.02;100.00
37238;BME280;23129;49.662;8.448;2023-01-31T03:21:50;101729.56;;;2.01;100.00
37238;BME280;23129;49.662;8.448;2023-01-31T03:24:20;101732.97;;;2.00;100.00
37238;BME280;23129;49.662;8.448;2023-01-31T03:26:53;101726.91;;;1.98;100.00
37238;BME280;23129;49.662;8.448;2023-01-31T03:29:25;101732.16;;;2.01;100.00
37238;BME280;23129;49.662;8.448;2023-01-31T03:31:59;101739.94;;;2.02;100.00
37238;BME280;23129;49.662;8.448;2023-01-31T03:34:32;101739.06;;;2.02;100.00
37238;BME280;23129;49.662;8.448;2023-01-31T03:37:10;101741.59;;;2.00;100.00
37238;BME280;23129;49.662;8.448;2023-01-31T03:39:55;101749.34;;;1.99;100.00
37238;BME280;23129;49.662;8.448;2023-01-31T03:42:33;101749.25;;;1.96;100.00
37238;BME280;23129;49.662;8.448;2023-01-31T03:45:12;101754.34;;;1.93;100.00
37238;BME280;23129;49.662;8.448;2023-01-31T03:47:47;101757.69;;;1.89;100.00
37238;BME280;23129;49.662;8.448;2023-01-31T03:50:23;101754.16;;;1.87;100.00
37238;BME280;23129;49.662;8.448;2023-01-31T03:53:00;101753.25;;;1.85;100.00
37238;BME280;23129;49.662;8.448;2023-01-31T03:55:36;101759.34;;;1.87;100.00
37238;BME280;23129;49.662;8.448;2023-01-31T03:58:07;101754.16;;;1.87;100.00
37238;BME280;23129;49.662;8.448;2023-01-31T04:00:42;101761.09;;;1.88;100.00
37238;BME280;23129;49.662;8.448;2023-01-31T04:03:16;101757.69;;;1.89;100.00
37238;BME280;23129;49.662;8.448;2023-01-31T04:05:48;101755.13;;;1.90;100.00
37238;BME280;23129;49.662;8.448;2023-01-31T04:08:20;101748.25;;;1.91;100.00
37238;BME280;23129;49.662;8.448;2023-01-31T04:10:58;101758.59;;;1.91;100.00
37238;BME280;23129;49.662;8.448;2023-01-31T04:13:27;101759.53;;;1.93;100.00
37238;BME280;23129;49.662;8.448;2023-01-31T04:15:57;101750.88;;;1.92;100.00
37238;BME280;23129;49.662;8.448;2023-01-31T04:18:25;101759.44;;;1.90;100.00
37238;BME280;23129;49.662;8.448;2023-01-31T04:20:54;101759.44;;;1.90;100.00
37238;BME280;23129;49.662;8.448;2023-01-31T04:23:24;101756.00;;;1.91;100.00
37238;BME280;23129;49.662;8.448;2023-01-31T04:25:53;101762.06;;;1.91;100.00
37238;BME280;23129;49.662;8.448;2023-01-31T04:28:21;101757.78;;;1.92;100.00
37238;BME280;23129;49.662;8.448;2023-01-31T04:30:52;101761.25;;;1.94;100.00
37238;BME280;23129;49.662;8.448;2023-01-31T04:33:22;101756.94;;;1.93;100.00
37238;BME280;23129;49.662;8.448;2023-01-31T04:35:51;101756.00;;;1.91;100.00
37238;BME280;23129;49.662;8.448;2023-01-31T04:38:19;101755.13;;;1.90;100.00
37238;BME280;23129;49.662;8.448;2023-01-31T04:40:49;101752.50;;;1.89;100.00
37238;BME280;23129;49.662;8.448;2023-01-31T04:43:18;101751.59;;;1.87;100.00
37238;BME280;23129;49.662;8.448;2023-01-31T04:45:47;101752.38;;;1.84;100.00
37238;BME280;23129;49.662;8.448;2023-01-31T04:48:15;101742.81;;;1.81;100.00
37238;BME280;23129;49.662;8.448;2023-01-31T04:50:43;101740.97;;;1.77;100.00
37238;BME280;23129;49.662;8.448;2023-01-31T04:53:12;101734.88;;;1.75;100.00
37238;BME280;23129;49.662;8.448;2023-01-31T04:55:41;101740.81;;;1.73;100.00
37238;BME280;23129;49.662;8.448;2023-01-31T04:58:11;101739.88;;;1.69;100.00
37238;BME280;23129;49.662;8.448;2023-01-31T05:00:39;101744.94;;;1.66;100.00
37238;BME280;23129;49.662;8.448;2023-01-31T05:03:08;101746.59;;;1.64;100.00
37238;BME280;23129;49.662;8.448;2023-01-31T05:05:36;101746.59;;;1.64;100.00
37238;BME280;23129;49.662;8.448;2023-01-31T05:08:05;101746.56;;;1.63;100.00
37238;BME280;23129;49.662;8.448;2023-01-31T05:10:34;101744.78;;;1.60;100.00
37238;BME280;23129;49.662;8.448;2023-01-31T05:13:03;101737.84;;;1.59;100.00
37238;BME280;23129;49.662;8.448;2023-01-31T05:15:33;101737.78;;;1.57;100.00
37238;BME280;23129;49.662;8.448;2023-01-31T05:18:02;101725.72;;;1.58;100.00
37238;BME280;23129;49.662;8.448;2023-01-31T05:20:34;101741.25;;;1.58;100.00
37238;BME280;23129;49.662;8.448;2023-01-31T05:23:06;101743.81;;;1.56;100.00
37238;BME280;23129;49.662;8.448;2023-01-31T05:25:35;101732.53;;;1.54;100.00
37238;BME280;23129;49.662;8.448;2023-01-31T05:28:05;101727.34;;;1.53;100.00
37238;BME280;23129;49.662;8.448;2023-01-31T05:30:36;101725.47;;;1.49;100.00
37238;BME280;23129;49.662;8.448;2023-01-31T05:33:05;101733.13;;;1.46;100.00
37238;BME280;23129;49.662;8.448;2023-01-31T05:35:33;101735.63;;;1.43;100.00
37238;BME280;23129;49.662;8.448;2023-01-31T05:38:02;101744.16;;;1.40;100.00
37238;BME280;23129;49.662;8.448;2023-01-31T05:40:30;101725.97;;;1.37;100.00
37238;BME280;23129;49.662;8.448;2023-01-31T05:42:59;101718.09;;;1.32;100.00
37238;BME280;23129;49.662;8.448;2023-01-31T05:45:28;101718.88;;;1.30;100.00
37238;BME280;23129;49.662;8.448;2023-01-31T05:47:59;101719.72;;;1.29;100.00
37238;BME280;23129;49.662;8.448;2023-01-31T05:50:28;101716.22;;;1.28;100.00
37238;BME280;23129;49.662;8.448;2023-01-31T05:53:07;101712.75;;;1.26;100.00
37238;BME280;23129;49.662;8.448;2023-01-31T05:55:37;101714.38;;;1.24;100.00
37238;BME280;23129;49.662;8.448;2023-01-31T05:58:05;101723.84;;;1.24;100.00
37238;BME280;23129;49.662;8.448;2023-01-31T06:00:34;101733.31;;;1.23;100.00
37238;BME280;23129;49.662;8.448;2023-01-31T06:03:03;101734.22;;;1.25;100.00
37238;BME280;23129;49.662;8.448;2023-01-31T06:05:32;101727.47;;;1.29;100.00
37238;BME280;23129;49.662;8.448;2023-01-31T06:08:01;101738.00;;;1.35;100.00
37238;BME280;23129;49.662;8.448;2023-01-31T06:10:29;101744.22;;;1.42;100.00
37238;BME280;23129;49.662;8.448;2023-01-31T06:12:58;101739.25;;;1.49;100.00
37238;BME280;23129;49.662;8.448;2023-01-31T06:15:26;101735.22;;;1.57;100.00
37238;BME280;23129;49.662;8.448;2023-01-31T06:17:55;101738.03;;;1.65;100.00
37238;BME280;23129;49.662;8.448;2023-01-31T06:20:25;101731.34;;;1.73;100.00
37238;BME280;23129;49.662;8.448;2023-01-31T06:22:54;101737.59;;;1.80;100.00
37238;BME280;23129;49.662;8.448;2023-01-31T06:25:23;101724.88;;;1.88;100.00
37238;BME280;23129;49.662;8.448;2023-01-31T06:27:52;101719.88;;;1.94;100.00
37238;BME280;23129;49.662;8.448;2023-01-31T06:30:23;101722.69;;;2.01;100.00
37238;BME280;23129;49.662;8.448;2023-01-31T06:32:51;101721.97;;;2.07;100.00
37238;BME280;23129;49.662;8.448;2023-01-31T06:35:20;101727.25;;;2.10;100.00
37238;BME280;23129;49.662;8.448;2023-01-31T06:37:50;101729.06;;;2.14;100.00
37238;BME280;23129;49.662;8.448;2023-01-31T06:40:18;101733.47;;;2.18;100.00
37238;BME280;23129;49.662;8.448;2023-01-31T06:42:47;101727.56;;;2.22;100.00
37238;BME280;23129;49.662;8.448;2023-01-31T06:45:15;101732.75;;;2.22;100.00
37238;BME280;23129;49.662;8.448;2023-01-31T06:47:45;101730.97;;;2.21;100.00
37238;BME280;23129;49.662;8.448;2023-01-31T06:50:13;101743.03;;;2.19;100.00
37238;BME280;23129;49.662;8.448;2023-01-31T06:52:42;101739.50;;;2.17;100.00
37238;BME280;23129;49.662;8.448;2023-01-31T06:55:12;101743.81;;;2.18;100.00
37238;BME280;23129;49.662;8.448;2023-01-31T06:57:45;101748.19;;;2.19;100.00
37238;BME280;23129;49.662;8.448;2023-01-31T07:00:16;101748.19;;;2.19;100.00
37238;BME280;23129;49.662;8.448;2023-01-31T07:02:46;101764.59;;;2.20;100.00
37238;BME280;23129;49.662;8.448;2023-01-31T07:05:14;101761.94;;;2.18;100.00
37238;BME280;23129;49.662;8.448;2023-01-31T07:07:43;101764.53;;;2.18;100.00
37238;BME280;23129;49.662;8.448;2023-01-31T07:10:13;101767.97;;;2.17;100.00
37238;BME280;23129;49.662;8.448;2023-01-31T07:12:41;101769.63;;;2.15;100.00
37238;BME280;23129;49.662;8.448;2023-01-31T07:15:10;101768.72;;;2.13;100.00
37238;BME280;23129;49.662;8.448;2023-01-31T07:17:39;101782.47;;;2.12;100.00
37238;BME280;23129;49.662;8.448;2023-01-31T07:20:09;101789.44;;;2.13;100.00
37238;BME280;23129;49.662;8.448;2023-01-31T07:22:37;101793.69;;;2.11;100.00
37238;BME280;23129;49.662;8.448;2023-01-31T07:25:06;101801.44;;;2.11;100.00
37238;BME280;23129;49.662;8.448;2023-01-31T07:27:36;101808.38;;;2.12;100.00
37238;BME280;23129;49.662;8.448;2023-01-31T07:30:06;101792.84;;;2.12;100.00
37238;BME280;23129;49.662;8.448;2023-01-31T07:32:35;101802.38;;;2.13;100.00
37238;BME280;23129;49.662;8.448;2023-01-31T07:35:04;101811.00;;;2.14;100.00
37238;BME280;23129;49.662;8.448;2023-01-31T07:37:32;101807.56;;;2.13;100.00
37238;BME280;23129;49.662;8.448;2023-01-31T07:40:01;101802.28;;;2.10;100.00
37238;BME280;23129;49.662;8.448;2023-01-31T07:42:31;101804.00;;;2.10;100.00
37238;BME280;23129;49.662;8.448;2023-01-31T07:45:00;101797.94;;;2.09;100.00
37238;BME280;23129;49.662;8.448;2023-01-31T07:47:49;101813.44;;;2.09;100.00
37238;BME280;23129;49.662;8.448;2023-01-31T07:50:18;101802.22;;;2.09;100.00
37238;BME280;23129;49.662;8.448;2023-01-31T07:52:46;101812.56;;;2.07;100.00
37238;BME280;23129;49.662;8.448;2023-01-31T07:55:17;101801.28;;;2.05;100.00
37238;BME280;23129;49.662;8.448;2023-01-31T07:57:45;101799.47;;;2.02;100.00
37238;BME280;23129;49.662;8.448;2023-01-31T08:00:17;101815.06;;;2.04;100.00
37238;BME280;23129;49.662;8.448;2023-01-31T08:03:03;101808.19;;;2.06;100.00
37238;BME280;23129;49.662;8.448;2023-01-31T08:05:50;101816.09;;;2.11;100.00
37238;BME280;23129;49.662;8.448;2023-01-31T08:08:18;101828.25;;;2.13;100.00
37238;BME280;23129;49.662;8.448;2023-01-31T08:10:46;101821.56;;;2.21;100.00
37238;BME280;23129;49.662;8.448;2023-01-31T08:13:15;101824.53;;;2.34;100.00
37238;BME280;23129;49.662;8.448;2023-01-31T08:15:44;101818.00;;;2.48;100.00
37238;BME280;23129;49.662;8.448;2023-01-31T08:18:13;101807.16;;;2.61;100.00
37238;BME280;23129;49.662;8.448;2023-01-31T08:20:41;101813.50;;;2.72;100.00
37238;BME280;23129;49.662;8.448;2023-01-31T08:23:11;101806.84;;;2.84;100.00
37238;BME280;23129;49.662;8.448;2023-01-31T08:25:39;101795.91;;;2.94;100.00
37238;BME280;23129;49.662;8.448;2023-01-31T08:28:09;101809.09;;;3.03;100.00
37238;BME280;23129;49.662;8.448;2023-01-31T08:30:39;101797.13;;;3.08;100.00
37238;BME280;23129;49.662;8.448;2023-01-31T08:33:10;101795.44;;;3.10;100.00
37238;BME280;23129;49.662;8.448;2023-01-31T08:35:39;101798.09;;;3.12;100.00
37238;BME280;23129;49.662;8.448;2023-01-31T08:38:07;101805.00;;;3.13;100.00
37238;BME280;23129;49.662;8.448;2023-01-31T08:40:43;101801.63;;;3.15;100.00
37238;BME280;23129;49.662;8.448;2023-01-31T08:43:12;101806.81;;;3.17;100.00
37238;BME280;23129;49.662;8.448;2023-01-31T08:45:41;101804.28;;;3.18;100.00
37238;BME280;23129;49.662;8.448;2023-01-31T08:48:10;101810.41;;;3.20;100.00
37238;BME280;23129;49.662;8.448;2023-01-31T08:50:39;101796.63;;;3.23;100.00
37238;BME280;23129;49.662;8.448;2023-01-31T08:53:07;101796.66;;;3.25;100.00
37238;BME280;23129;49.662;8.448;2023-01-31T08:55:36;101782.84;;;3.26;100.00
37238;BME280;23129;49.662;8.448;2023-01-31T08:58:04;101788.06;;;3.27;100.00
37238;BME280;23129;49.662;8.448;2023-01-31T09:00:33;101795.88;;;3.29;100.00
37238;BME280;23129;49.662;8.448;2023-01-31T09:03:01;101809.75;;;3.31;100.00
37238;BME280;23129;49.662;8.448;2023-01-31T09:05:31;101812.41;;;3.32;100.00
37238;BME280;23129;49.662;8.448;2023-01-31T09:08:00;101816.75;;;3.35;100.00
37238;BME280;23129;49.662;8.448;2023-01-31T09:10:28;101813.44;;;3.40;100.00
37238;BME280;23129;49.662;8.448;2023-01-31T09:12:58;101806.72;;;3.47;100.00
37238;BME280;23129;49.662;8.448;2023-01-31T09:15:27;101809.47;;;3.55;100.00
37238;BME280;23129;49.662;8.448;2023-01-31T09:17:56;101811.31;;;3.60;100.00
37238;BME280;23129;49.662;8.448;2023-01-31T09:20:24;101797.63;;;3.67;100.00
37238;BME280;23129;49.662;8.448;2023-01-31T09:22:54;101796.06;;;3.74;100.00
37238;BME280;23129;49.662;8.448;2023-01-31T09:25:22;101793.63;;;3.80;100.00
37238;BME280;23129;49.662;8.448;2023-01-31T09:28:10;101781.69;;;3.90;100.00
37238;BME280;23129;49.662;8.448;2023-01-31T09:30:38;101793.16;;;4.00;100.00
37238;BME280;23129;49.662;8.448;2023-01-31T09:33:07;101777.75;;;4.07;100.00
37238;BME280;23129;49.662;8.448;2023-01-31T09:35:35;101780.53;;;4.17;100.00
37238;BME280;23129;49.662;8.448;2023-01-31T09:38:05;101773.81;;;4.28;100.00
37238;BME280;23129;49.662;8.448;2023-01-31T09:40:36;101789.59;;;4.37;100.00
37238;BME280;23129;49.662;8.448;2023-01-31T09:43:08;101774.88;;;4.39;100.00
37238;BME280;23129;49.662;8.448;2023-01-31T09:45:39;101775.84;;;4.44;100.00
37238;BME280;23129;49.662;8.448;2023-01-31T09:48:16;101763.84;;;4.49;100.00
37238;BME280;23129;49.662;8.448;2023-01-31T09:50:49;101778.66;;;4.56;100.00
37238;BME280;23129;49.662;8.448;2023-01-31T09:53:24;101786.53;;;4.60;100.00
37238;BME280;23129;49.662;8.448;2023-01-31T09:56:08;101793.53;;;4.64;100.00
37238;BME280;23129;49.662;8.448;2023-01-31T09:58:51;101803.03;;;4.62;100.00
37238;BME280;23129;49.662;8.448;2023-01-31T10:01:27;101805.56;;;4.58;100.00
37238;BME280;23129;49.662;8.448;2023-01-31T10:04:14;101807.25;;;4.56;100.00
37238;BME280;23129;49.662;8.448;2023-01-31T10:06:53;101811.59;;;4.56;100.00
37238;BME280;23129;49.662;8.448;2023-01-31T10:09:31;101803.75;;;4.54;100.00
37238;BME280;23129;49.662;8.448;2023-01-31T10:12:08;101801.13;;;4.53;100.00
37238;BME280;23129;49.662;8.448;2023-01-31T10:14:44;101781.19;;;4.52;100.00
37238;BME280;23129;49.662;8.448;2023-01-31T10:17:20;101755.19;;;4.50;100.00
37238;BME280;23129;49.662;8.448;2023-01-31T10:19:55;101752.63;;;4.52;100.00
37238;BME280;23129;49.662;8.448;2023-01-31T10:22:31;101761.28;;;4.52;100.00
37238;BME280;23129;49.662;8.448;2023-01-31T10:25:16;101770.81;;;4.53;100.00
37238;BME280;23129;49.662;8.448;2023-01-31T10:27:50;101792.53;;;4.55;100.00
37238;BME280;23129;49.662;8.448;2023-01-31T10:30:26;101775.19;;;4.56;100.00
37238;BME280;23129;49.662;8.448;2023-01-31T10:33:02;101763.94;;;4.55;100.00
37238;BME280;23129;49.662;8.448;2023-01-31T10:35:39;101767.38;;;4.54;100.00
37238;BME280;23129;49.662;8.448;2023-01-31T10:38:17;101774.34;;;4.55;100.00
37238;BME280;23129;49.662;8.448;2023-01-31T10:40:52;101768.31;;;4.58;100.00
37238;BME280;23129;49.662;8.448;2023-01-31T10:43:32;101764.06;;;4.62;100.00
37238;BME280;23129;49.662;8.448;2023-01-31T10:46:10;101764.16;;;4.68;100.00
37238;BME280;23129;49.662;8.448;2023-01-31T10:48:40;101774.66;;;4.74;100.00
37238;BME280;23129;49.662;8.448;2023-01-31T10:51:33;101776.44;;;4.78;100.00
37238;BME280;23129;49.662;8.448;2023-01-31T10:54:22;101769.66;;;4.86;100.00
37238;BME280;23129;49.662;8.448;2023-01-31T10:56:58;101762.88;;;4.94;100.00
37238;BME280;23129;49.662;8.448;2023-01-31T10:59:32;101762.97;;;5.00;100.00
37238;BME280;23129;49.662;8.448;2023-01-31T11:02:01;101757.88;;;5.07;100.00
37238;BME280;23129;49.662;8.448;2023-01-31T11:04:33;101762.25;;;5.09;100.00
37238;BME280;23129;49.662;8.448;2023-01-31T11:07:03;101740.59;;;5.09;100.00
37238;BME280;23129;49.662;8.448;2023-01-31T11:09:37;101724.97;;;5.09;100.00
37238;BME280;23129;49.662;8.448;2023-01-31T11:12:08;101709.44;;;5.12;100.00
37238;BME280;23129;49.662;8.448;2023-01-31T11:14:37;101694.75;;;5.17;100.00
37238;BME280;23129;49.662;8.448;2023-01-31T11:17:08;101686.97;;;5.20;100.00
37238;BME280;23129;49.662;8.448;2023-01-31T11:19:44;101667.97;;;5.24;100.00
37238;BME280;23129;49.662;8.448;2023-01-31T11:22:22;101674.97;;;5.28;100.00
37238;BME280;23129;49.662;8.448;2023-01-31T11:24:52;101682.81;;;5.31;100.00
37238;BME280;23129;49.662;8.448;2023-01-31T11:27:27;101673.31;;;5.33;100.00
37238;BME280;23129;49.662;8.448;2023-01-31T11:29:57;101676.75;;;5.32;100.00
37238;BME280;23129;49.662;8.448;2023-01-31T11:32:29;101680.22;;;5.31;100.00
37238;BME280;23129;49.662;8.448;2023-01-31T11:35:00;101671.53;;;5.32;100.00
37238;BME280;23129;49.662;8.448;2023-01-31T11:37:31;101675.84;;;5.29;100.00
37238;BME280;23129;49.662;8.448;2023-01-31T11:40:16;101647.16;;;5.24;100.00
37238;BME280;23129;49.662;8.448;2023-01-31T11:42:54;101647.13;;;5.21;100.00
37238;BME280;23129;49.662;8.448;2023-01-31T11:45:25;101630.63;;;5.19;100.00
37238;BME280;23129;49.662;8.448;2023-01-31T11:47:57;101621.91;;;5.15;100.00
37238;BME280;23129;49.662;8.448;2023-01-31T11:50:32;101640.97;;;5.16;100.00
37238;BME280;23129;49.662;8.448;2023-01-31T11:53:12;101631.44;;;5.15;100.00
37238;BME280;23129;49.662;8.448;2023-01-31T11:55:43;101628.84;;;5.15;100.00
37238;BME280;23129;49.662;8.448;2023-01-31T11:58:19;101622.75;;;5.13;100.00
37238;BME280;23129;49.662;8.448;2023-01-31T12:00:54;101624.47;;;5.14;100.00
37238;BME280;23129;49.662;8.448;2023-01-31T12:03:24;101619.31;;;5.17;100.00
37238;BME280;23129;49.662;8.448;2023-01-31T12:06:00;101614.13;;;5.17;100.00
37238;BME280;23129;49.662;8.448;2023-01-31T12:08:31;101613.28;;;5.18;100.00
37238;BME280;23129;49.662;8.448;2023-01-31T12:11:04;101615.03;;;5.19;100.00
37238;BME280;23129;49.662;8.448;2023-01-31T12:13:47;101592.47;;;5.19;100.00
37238;BME280;23129;49.662;8.448;2023-01-31T12:16:18;101598.59;;;5.23;100.00
37238;BME280;23129;49.662;8.448;2023-01-31T12:19:02;101600.34;;;5.24;100.00
37238;BME280;23129;49.662;8.448;2023-01-31T12:21:47;101581.28;;;5.25;100.00
37238;BME280;23129;49.662;8.448;2023-01-31T12:24:29;101581.31;;;5.28;100.00
37238;BME280;23129;49.662;8.448;2023-01-31T12:27:12;101574.41;;;5.32;100.00
37238;BME280;23129;49.662;8.448;2023-01-31T12:30:15;101588.31;;;5.35;100.00
37238;BME280;23129;49.662;8.448;2023-01-31T12:33:00;101586.66;;;5.39;100.00
37238;BME280;23129;49.662;8.448;2023-01-31T12:35:56;101578.88;;;5.42;100.00
37238;BME280;23129;49.662;8.448;2023-01-31T12:38:52;101558.97;;;5.45;100.00
37238;BME280;23129;49.662;8.448;2023-01-31T12:41:32;101557.28;;;5.47;100.00
37238;BME280;23129;49.662;8.448;2023-01-31T12:44:36;101535.59;;;5.48;100.00
37238;BME280;23129;49.662;8.448;2023-01-31T12:47:42;101544.25;;;5.49;100.00
37238;BME280;23129;49.662;8.448;2023-01-31T12:50:29;101554.72;;;5.51;100.00
37238;BME280;23129;49.662;8.448;2023-01-31T12:56:28;101538.19;;;5.48;100.00
37238;BME280;23129;49.662;8.448;2023-01-31T12:59:08;101537.34;;;5.51;100.00
37238;BME280;23129;49.662;8.448;2023-01-31T13:01:48;101521.75;;;5.53;100.00
37238;BME280;23129;49.662;8.448;2023-01-31T13:04:35;101510.50;;;5.54;100.00
37238;BME280;23129;49.662;8.448;2023-01-31T13:07:11;101507.03;;;5.56;100.00
37238;BME280;23129;49.662;8.448;2023-01-31T13:09:41;101540.03;;;5.59;100.00
37238;BME280;23129;49.662;8.448;2023-01-31T13:12:15;101521.84;;;5.60;100.00
37238;BME280;23129;49.662;8.448;2023-01-31T13:14:49;101508.81;;;5.62;100.00
37238;BME280;23129;49.662;8.448;2023-01-31T13:17:24;101509.69;;;5.62;100.00
37238;BME280;23129;49.662;8.448;2023-01-31T13:19:57;101509.69;;;5.62;100.00
37238;BME280;23129;49.662;8.448;2023-01-31T13:22:32;101504.50;;;5.64;100.00
37238;BME280;23129;49.662;8.448;2023-01-31T13:25:15;101493.25;;;5.66;100.00
37238;BME280;23129;49.662;8.448;2023-01-31T13:27:54;101508.00;;;5.67;100.00